sensor_id;sensor_type;location;lat;lon;timestamp;pressure;altitude;pressure_sealevel;temperature;humidity
79663;BME280;69130;48.724;8.982;2023-05-18T00:01:07;97122.25;;;3.57;96.08
79663;BME280;69130;48.724;8.982;2023-05-18T00:03:33;97120.25;;;3.65;96.20
79663;BME280;69130;48.724;8.982;2023-05-18T00:05:58;97113.91;;;3.72;96.21
79663;BME280;69130;48.724;8.982;2023-05-18T00:08:35;97113.84;;;3.75;95.52
79663;BME280;69130;48.724;8.982;2023-05-18T00:11:02;97105.00;;;3.79;95.71
79663;BME280;69130;48.724;8.982;2023-05-18T00:13:28;97106.63;;;3.81;95.42
79663;BME280;69130;48.724;8.982;2023-05-18T00:15:54;97100.88;;;3.98;95.12
79663;BME280;69130;48.724;8.982;2023-05-18T00:18:20;97095.63;;;3.98;94.56
79663;BME280;69130;48.724;8.982;2023-05-18T00:20:51;97093.03;;;3.98;94.17
79663;BME280;69130;48.724;8.982;2023-05-18T00:23:25;97088.03;;;3.90;94.76
79663;BME280;69130;48.724;8.982;2023-05-18T00:25:54;97074.50;;;4.04;94.61
79663;BME280;69130;48.724;8.982;2023-05-18T00:28:20;97079.81;;;4.01;93.78
79663;BME280;69130;48.724;8.982;2023-05-18T00:30:45;97078.13;;;4.00;94.04
79663;BME280;69130;48.724;8.982;2023-05-18T00:33:10;97073.06;;;3.94;94.07
79663;BME280;69130;48.724;8.982;2023-05-18T00:35:36;97070.78;;;3.85;94.36
79663;BME280;69130;48.724;8.982;2023-05-18T00:38:01;97070.47;;;3.66;94.59
79663;BME280;69130;48.724;8.982;2023-05-18T00:40:27;97078.63;;;3.57;95.32
79663;BME280;69130;48.724;8.982;2023-05-18T00:42:53;97085.63;;;3.57;96.20
79663;BME280;69130;48.724;8.982;2023-05-18T00:45:19;97084.88;;;3.51;96.55
79663;BME280;69130;48.724;8.982;2023-05-18T00:47:45;97091.28;;;3.43;96.38
79663;BME280;69130;48.724;8.982;2023-05-18T00:50:11;97080.31;;;3.30;95.87
79663;BME280;69130;48.724;8.982;2023-05-18T00:52:37;97080.31;;;3.30;95.66
79663;BME280;69130;48.724;8.982;2023-05-18T00:55:03;97084.50;;;3.36;96.43
79663;BME280;69130;48.724;8.982;2023-05-18T00:57:28;97082.88;;;3.32;96.65
79663;BME280;69130;48.724;8.982;2023-05-18T00:59:55;97084.91;;;3.22;96.51
79663;BME280;69130;48.724;8.982;2023-05-18T01:02:21;97084.22;;;3.17;97.27
79663;BME280;69130;48.724;8.982;2023-05-18T01:04:47;97085.09;;;3.16;96.80
79663;BME280;69130;48.724;8.982;2023-05-18T01:07:13;97072.16;;;3.12;97.50
79663;BME280;69130;48.724;8.982;2023-05-18T01:09:41;97077.38;;;3.12;97.50
79663;BME280;69130;48.724;8.982;2023-05-18T01:14:55;97069.00;;;3.01;97.89
79663;BME280;69130;48.724;8.982;2023-05-18T01:28:19;97076.22;;;2.93;97.61
79663;BME280;69130;48.724;8.982;2023-05-18T01:30:45;97069.41;;;2.87;97.87
79663;BME280;69130;48.724;8.982;2023-05-18T01:33:12;97073.06;;;2.82;97.32
79663;BME280;69130;48.724;8.982;2023-05-18T01:35:38;97063.66;;;2.75;97.43
79663;BME280;69130;48.724;8.982;2023-05-18T01:38:13;97081.13;;;2.74;97.80
79663;BME280;69130;48.724;8.982;2023-05-18T01:40:47;97070.66;;;2.74;97.90
79663;BME280;69130;48.724;8.982;2023-05-18T01:43:18;97068.16;;;2.70;98.25
79663;BME280;69130;48.724;8.982;2023-05-18T01:45:46;97070.91;;;2.65;98.21
79663;BME280;69130;48.724;8.982;2023-05-18T01:48:17;97076.34;;;2.57;98.55
79663;BME280;69130;48.724;8.982;2023-05-18T01:50:47;97078.84;;;2.62;98.22
79663;BME280;69130;48.724;8.982;2023-05-18T01:55:47;97069.31;;;2.59;98.85
79663;BME280;69130;48.724;8.982;2023-05-18T01:58:15;97060.75;;;2.54;98.61
79663;BME280;69130;48.724;8.982;2023-05-18T02:00:41;97059.16;;;2.49;97.89
79663;BME280;69130;48.724;8.982;2023-05-18T02:03:07;97059.47;;;2.38;97.86
79663;BME280;69130;48.724;8.982;2023-05-18T02:05:32;97057.63;;;2.42;98.25
79663;BME280;69130;48.724;8.982;2023-05-18T02:07:57;97057.66;;;2.40;98.67
79663;BME280;69130;48.724;8.982;2023-05-18T02:10:23;97051.41;;;2.46;99.26
79663;BME280;69130;48.724;8.982;2023-05-18T02:12:48;97056.75;;;2.41;98.76
79663;BME280;69130;48.724;8.982;2023-05-18T02:15:16;97054.19;;;2.40;99.16
79663;BME280;69130;48.724;8.982;2023-05-18T02:17:42;97056.03;;;2.36;99.20
79663;BME280;69130;48.724;8.982;2023-05-18T02:20:08;97061.41;;;2.30;98.25
79663;BME280;69130;48.724;8.982;2023-05-18T02:22:34;97059.06;;;2.20;98.03
79663;BME280;69130;48.724;8.982;2023-05-18T02:25:00;97056.47;;;2.20;98.55
79663;BME280;69130;48.724;8.982;2023-05-18T02:27:25;97055.66;;;2.18;98.86
79663;BME280;69130;48.724;8.982;2023-05-18T02:29:51;97061.78;;;2.17;98.78
79663;BME280;69130;48.724;8.982;2023-05-18T02:32:16;97055.81;;;2.12;98.65
79663;BME280;69130;48.724;8.982;2023-05-18T02:34:42;97052.31;;;2.11;99.17
79663;BME280;69130;48.724;8.982;2023-05-18T02:37:08;97054.16;;;2.08;99.31
79663;BME280;69130;48.724;8.982;2023-05-18T02:39:33;97054.91;;;2.13;99.68
79663;BME280;69130;48.724;8.982;2023-05-18T02:41:58;97047.03;;;2.14;98.97
79663;BME280;69130;48.724;8.982;2023-05-18T02:44:24;97048.91;;;2.09;98.69
79663;BME280;69130;48.724;8.982;2023-05-18T02:46:50;97044.38;;;2.16;98.75
79663;BME280;69130;48.724;8.982;2023-05-18T02:49:15;97040.91;;;2.15;98.87
79663;BME280;69130;48.724;8.982;2023-05-18T02:51:41;97046.28;;;2.11;98.85
79663;BME280;69130;48.724;8.982;2023-05-18T02:54:06;97037.53;;;2.12;98.99
79663;BME280;69130;48.724;8.982;2023-05-18T02:56:31;97041.06;;;2.09;99.24
79663;BME280;69130;48.724;8.982;2023-05-18T02:58:57;97039.31;;;2.10;99.06
79663;BME280;69130;48.724;8.982;2023-05-18T03:01:25;97035.13;;;2.04;99.16
79663;BME280;69130;48.724;8.982;2023-05-18T03:03:51;97037.69;;;2.06;98.81
79663;BME280;69130;48.724;8.982;2023-05-18T03:06:17;97037.56;;;2.10;99.51
79663;BME280;69130;48.724;8.982;2023-05-18T03:08:54;97035.84;;;2.09;99.64
79663;BME280;69130;48.724;8.982;2023-05-18T03:11:21;97031.44;;;2.11;99.92
79663;BME280;69130;48.724;8.982;2023-05-18T03:13:47;97036.81;;;2.07;99.62
79663;BME280;69130;48.724;8.982;2023-05-18T03:16:12;97034.91;;;2.12;99.75
79663;BME280;69130;48.724;8.982;2023-05-18T03:18:38;97036.84;;;2.05;99.61
79663;BME280;69130;48.724;8.982;2023-05-18T03:21:04;97029.84;;;2.06;99.68
79663;BME280;69130;48.724;8.982;2023-05-18T03:23:29;97040.25;;;2.07;99.74
79663;BME280;69130;48.724;8.982;2023-05-18T03:25:55;97038.66;;;2.02;99.27
79663;BME280;69130;48.724;8.982;2023-05-18T03:28:20;97042.19;;;2.01;99.56
79663;BME280;69130;48.724;8.982;2023-05-18T03:30:46;97035.84;;;2.11;99.86
79663;BME280;69130;48.724;8.982;2023-05-18T03:33:11;97036.75;;;2.08;100.00
79663;BME280;69130;48.724;8.982;2023-05-18T03:35:37;97033.25;;;2.09;99.95
79663;BME280;69130;48.724;8.982;2023-05-18T03:38:05;97039.47;;;2.04;99.79
79663;BME280;69130;48.724;8.982;2023-05-18T03:40:30;97036.72;;;2.10;100.00
79663;BME280;69130;48.724;8.982;2023-05-18T03:42:55;97036.81;;;2.07;99.89
79663;BME280;69130;48.724;8.982;2023-05-18T03:45:21;97035.84;;;2.11;99.84
79663;BME280;69130;48.724;8.982;2023-05-18T03:47:46;97040.25;;;2.09;100.00
79663;BME280;69130;48.724;8.982;2023-05-18T03:50:12;97043.66;;;2.11;100.00
79663;BME280;69130;48.724;8.982;2023-05-18T03:52:37;97042.78;;;2.10;99.94
79663;BME280;69130;48.724;8.982;2023-05-18T03:55:03;97046.28;;;2.09;99.99
79663;BME280;69130;48.724;8.982;2023-05-18T03:57:29;97048.22;;;2.03;100.00
79663;BME280;69130;48.724;8.982;2023-05-18T03:59:56;97054.47;;;1.97;99.52
79663;BME280;69130;48.724;8.982;2023-05-18T04:02:21;97053.56;;;1.98;99.92
79663;BME280;69130;48.724;8.982;2023-05-18T04:04:47;97058.00;;;1.95;99.14
79663;BME280;69130;48.724;8.982;2023-05-18T04:07:14;97056.97;;;2.00;100.00
79663;BME280;69130;48.724;8.982;2023-05-18T04:09:42;97057.59;;;2.10;99.96
79663;BME280;69130;48.724;8.982;2023-05-18T04:12:09;97055.69;;;2.16;100.00
79663;BME280;69130;48.724;8.982;2023-05-18T04:14:35;97064.34;;;2.18;99.93
79663;BME280;69130;48.724;8.982;2023-05-18T04:17:00;97062.50;;;2.22;99.98
79663;BME280;69130;48.724;8.982;2023-05-18T04:19:33;97063.28;;;2.25;99.43
79663;BME280;69130;48.724;8.982;2023-05-18T04:22:00;97061.47;;;2.27;99.44
79663;BME280;69130;48.724;8.982;2023-05-18T04:24:29;97063.81;;;2.38;99.49
79663;BME280;69130;48.724;8.982;2023-05-18T04:26:57;97067.78;;;2.52;99.64
79663;BME280;69130;48.724;8.982;2023-05-18T04:29:23;97069.91;;;2.69;99.97
79663;BME280;69130;48.724;8.982;2023-05-18T04:31:49;97066.19;;;2.78;99.90
79663;BME280;69130;48.724;8.982;2023-05-18T04:34:14;97070.13;;;2.92;99.31
79663;BME280;69130;48.724;8.982;2023-05-18T04:36:42;97072.19;;;3.10;99.15
79663;BME280;69130;48.724;8.982;2023-05-18T04:39:08;97076.00;;;3.29;99.45
79663;BME280;69130;48.724;8.982;2023-05-18T04:41:34;97075.22;;;3.55;98.87
79663;BME280;69130;48.724;8.982;2023-05-18T04:43:59;97073.59;;;3.79;98.32
79663;BME280;69130;48.724;8.982;2023-05-18T04:46:28;97075.56;;;3.98;97.35
79663;BME280;69130;48.724;8.982;2023-05-18T04:48:54;97082.16;;;4.10;96.30
79663;BME280;69130;48.724;8.982;2023-05-18T04:51:22;97073.03;;;4.21;96.57
79663;BME280;69130;48.724;8.982;2023-05-18T04:53:48;97080.94;;;4.44;95.64
79663;BME280;69130;48.724;8.982;2023-05-18T04:56:17;97065.00;;;4.51;94.53
79663;BME280;69130;48.724;8.982;2023-05-18T04:58:45;97076.56;;;4.70;94.40
79663;BME280;69130;48.724;8.982;2023-05-18T05:01:12;97075.50;;;4.75;93.63
79663;BME280;69130;48.724;8.982;2023-05-18T05:03:39;97079.91;;;4.98;92.48
79663;BME280;69130;48.724;8.982;2023-05-18T05:06:05;97078.88;;;5.02;91.66
79663;BME280;69130;48.724;8.982;2023-05-18T05:08:30;97080.31;;;5.10;91.56
79663;BME280;69130;48.724;8.982;2023-05-18T05:10:55;97086.84;;;5.45;90.22
79663;BME280;69130;48.724;8.982;2023-05-18T05:13:21;97079.69;;;5.50;88.87
79663;BME280;69130;48.724;8.982;2023-05-18T05:15:46;97077.81;;;5.75;88.18
79663;BME280;69130;48.724;8.982;2023-05-18T05:18:12;97077.50;;;5.83;87.49
79663;BME280;69130;48.724;8.982;2023-05-18T05:20:37;97083.34;;;5.91;85.97
79663;BME280;69130;48.724;8.982;2023-05-18T05:23:02;97078.44;;;6.03;86.10
79663;BME280;69130;48.724;8.982;2023-05-18T05:25:28;97073.50;;;6.18;84.77
79663;BME280;69130;48.724;8.982;2023-05-18T05:27:53;97078.59;;;6.21;84.32
79663;BME280;69130;48.724;8.982;2023-05-18T05:30:18;97071.47;;;6.44;84.10
79663;BME280;69130;48.724;8.982;2023-05-18T05:32:44;97073.59;;;6.56;82.56
79663;BME280;69130;48.724;8.982;2023-05-18T05:35:09;97069.56;;;6.68;81.74
79663;BME280;69130;48.724;8.982;2023-05-18T05:37:35;97077.31;;;6.71;81.47
79663;BME280;69130;48.724;8.982;2023-05-18T05:40:00;97072.00;;;6.92;82.45
79663;BME280;69130;48.724;8.982;2023-05-18T05:42:25;97073.84;;;6.90;80.90
79663;BME280;69130;48.724;8.982;2023-05-18T05:44:51;97063.81;;;6.98;81.27
79663;BME280;69130;48.724;8.982;2023-05-18T05:47:16;97065.97;;;7.09;80.11
79663;BME280;69130;48.724;8.982;2023-05-18T05:49:42;97072.69;;;7.16;80.87
79663;BME280;69130;48.724;8.982;2023-05-18T05:52:07;97072.75;;;7.33;81.18
79663;BME280;69130;48.724;8.982;2023-05-18T05:54:32;97065.91;;;7.48;77.96
79663;BME280;69130;48.724;8.982;2023-05-18T05:56:58;97069.03;;;7.56;78.99
79663;BME280;69130;48.724;8.982;2023-05-18T05:59:23;97079.66;;;7.54;78.58
79663;BME280;69130;48.724;8.982;2023-05-18T06:01:49;97070.81;;;7.74;78.28
79663;BME280;69130;48.724;8.982;2023-05-18T06:04:14;97068.41;;;8.05;77.63
79663;BME280;69130;48.724;8.982;2023-05-18T06:06:40;97071.88;;;8.24;75.68
79663;BME280;69130;48.724;8.982;2023-05-18T06:09:08;97072.31;;;8.34;75.41
79663;BME280;69130;48.724;8.982;2023-05-18T06:11:33;97071.31;;;8.36;74.33
79663;BME280;69130;48.724;8.982;2023-05-18T06:13:59;97068.44;;;8.58;75.38
79663;BME280;69130;48.724;8.982;2023-05-18T06:16:24;97071.63;;;8.82;73.88
79663;BME280;69130;48.724;8.982;2023-05-18T06:18:50;97072.91;;;9.07;74.00
79663;BME280;69130;48.724;8.982;2023-05-18T06:21:15;97070.09;;;9.10;71.66
79663;BME280;69130;48.724;8.982;2023-05-18T06:23:41;97074.72;;;9.22;69.80
79663;BME280;69130;48.724;8.982;2023-05-18T06:26:07;97075.19;;;9.30;71.45
79663;BME280;69130;48.724;8.982;2023-05-18T06:28:32;97077.50;;;9.52;70.33
79663;BME280;69130;48.724;8.982;2023-05-18T06:30:58;97074.97;;;9.66;69.20
79663;BME280;69130;48.724;8.982;2023-05-18T06:33:23;97072.16;;;9.85;68.87
79663;BME280;69130;48.724;8.982;2023-05-18T06:35:48;97068.38;;;10.04;66.62
79663;BME280;69130;48.724;8.982;2023-05-18T06:38:14;97068.44;;;10.20;66.34
79663;BME280;69130;48.724;8.982;2023-05-18T06:40:39;97071.47;;;10.43;66.36
79663;BME280;69130;48.724;8.982;2023-05-18T06:43:05;97076.22;;;10.52;64.82
79663;BME280;69130;48.724;8.982;2023-05-18T06:45:30;97078.09;;;10.50;64.75
79663;BME280;69130;48.724;8.982;2023-05-18T06:47:55;97074.94;;;10.74;64.51
79663;BME280;69130;48.724;8.982;2023-05-18T06:50:21;97075.88;;;11.02;63.86
79663;BME280;69130;48.724;8.982;2023-05-18T06:52:46;97075.97;;;11.43;62.92
79663;BME280;69130;48.724;8.982;2023-05-18T06:55:11;97075.78;;;11.88;62.75
79663;BME280;69130;48.724;8.982;2023-05-18T06:57:37;97081.03;;;12.16;60.55
79663;BME280;69130;48.724;8.982;2023-05-18T07:00:03;97074.38;;;12.50;59.70
79663;BME280;69130;48.724;8.982;2023-05-18T07:02:31;97071.97;;;12.60;59.38
79663;BME280;69130;48.724;8.982;2023-05-18T07:04:56;97072.94;;;13.23;58.34
79663;BME280;69130;48.724;8.982;2023-05-18T07:07:22;97078.03;;;13.76;54.10
79663;BME280;69130;48.724;8.982;2023-05-18T07:09:47;97079.63;;;14.28;53.81
79663;BME280;69130;48.724;8.982;2023-05-18T07:12:14;97079.88;;;15.18;50.06
79663;BME280;69130;48.724;8.982;2023-05-18T07:14:39;97081.44;;;15.77;49.04
79663;BME280;69130;48.724;8.982;2023-05-18T07:17:05;97086.22;;;16.49;46.75
79663;BME280;69130;48.724;8.982;2023-05-18T07:19:31;97094.19;;;17.44;46.06
79663;BME280;69130;48.724;8.982;2023-05-18T07:21:57;97079.94;;;17.76;44.58
79663;BME280;69130;48.724;8.982;2023-05-18T07:24:23;97090.22;;;18.50;42.70
79663;BME280;69130;48.724;8.982;2023-05-18T07:26:49;97079.84;;;19.43;40.66
79663;BME280;69130;48.724;8.982;2023-05-18T07:29:14;97086.44;;;20.41;38.40
79663;BME280;69130;48.724;8.982;2023-05-18T07:31:40;97086.50;;;20.31;38.02
79663;BME280;69130;48.724;8.982;2023-05-18T07:34:06;97086.63;;;21.02;36.78
79663;BME280;69130;48.724;8.982;2023-05-18T07:36:31;97091.16;;;21.80;36.13
79663;BME280;69130;48.724;8.982;2023-05-18T07:38:57;97091.47;;;22.62;33.66
79663;BME280;69130;48.724;8.982;2023-05-18T07:41:23;97093.50;;;22.60;33.13
79663;BME280;69130;48.724;8.982;2023-05-18T07:43:50;97102.81;;;22.73;33.55
79663;BME280;69130;48.724;8.982;2023-05-18T07:46:15;97090.38;;;22.88;33.69
79663;BME280;69130;48.724;8.982;2023-05-18T07:48:40;97090.94;;;23.16;32.05
79663;BME280;69130;48.724;8.982;2023-05-18T07:51:06;97079.00;;;23.34;31.49
79663;BME280;69130;48.724;8.982;2023-05-18T07:53:32;97090.59;;;23.99;31.62
79663;BME280;69130;48.724;8.982;2023-05-18T07:55:58;97084.03;;;23.78;32.18
79663;BME280;69130;48.724;8.982;2023-05-18T07:58:24;97085.00;;;23.20;31.94
79663;BME280;69130;48.724;8.982;2023-05-18T08:00:49;97087.03;;;23.26;32.42
79663;BME280;69130;48.724;8.982;2023-05-18T08:03:16;97090.25;;;23.06;32.04
79663;BME280;69130;48.724;8.982;2023-05-18T08:05:42;97082.31;;;23.20;33.02
79663;BME280;69130;48.724;8.982;2023-05-18T08:08:07;97086.03;;;23.19;30.83
79663;BME280;69130;48.724;8.982;2023-05-18T08:10:36;97085.34;;;23.01;31.87
79663;BME280;69130;48.724;8.982;2023-05-18T08:13:02;97074.25;;;23.53;32.03
79663;BME280;69130;48.724;8.982;2023-05-18T08:15:27;97092.28;;;24.00;31.32
79663;BME280;69130;48.724;8.982;2023-05-18T08:17:53;97086.28;;;24.37;31.18
79663;BME280;69130;48.724;8.982;2023-05-18T08:20:19;97095.63;;;24.35;28.93
79663;BME280;69130;48.724;8.982;2023-05-18T08:22:44;97087.09;;;23.75;30.75
79663;BME280;69130;48.724;8.982;2023-05-18T08:25:10;97095.16;;;23.99;32.11
79663;BME280;69130;48.724;8.982;2023-05-18T08:27:35;97087.59;;;24.49;30.85
79663;BME280;69130;48.724;8.982;2023-05-18T08:30:01;97080.47;;;24.56;29.73
79663;BME280;69130;48.724;8.982;2023-05-18T08:32:26;97076.69;;;24.65;30.60
79663;BME280;69130;48.724;8.982;2023-05-18T08:34:52;97073.72;;;24.91;29.62
79663;BME280;69130;48.724;8.982;2023-05-18T08:37:18;97072.63;;;25.00;30.59
79663;BME280;69130;48.724;8.982;2023-05-18T08:39:44;97064.75;;;24.90;27.88
79663;BME280;69130;48.724;8.982;2023-05-18T08:47:21;97072.13;;;25.87;29.07
79663;BME280;69130;48.724;8.982;2023-05-18T08:49:51;97061.75;;;25.76;27.62
79663;BME280;69130;48.724;8.982;2023-05-18T08:52:17;97077.22;;;25.53;28.90
79663;BME280;69130;48.724;8.982;2023-05-18T08:54:47;97065.84;;;25.04;27.87
79663;BME280;69130;48.724;8.982;2023-05-18T08:57:16;97072.22;;;25.34;28.74
79663;BME280;69130;48.724;8.982;2023-05-18T08:59:45;97063.94;;;25.58;27.88
79663;BME280;69130;48.724;8.982;2023-05-18T09:02:11;97061.88;;;25.45;29.28
79663;BME280;69130;48.724;8.982;2023-05-18T09:04:37;97055.75;;;24.20;30.23
79663;BME280;69130;48.724;8.982;2023-05-18T09:07:03;97061.91;;;23.82;29.76
79663;BME280;69130;48.724;8.982;2023-05-18T09:09:29;97057.38;;;23.42;30.49
79663;BME280;69130;48.724;8.982;2023-05-18T09:11:56;97069.97;;;24.14;29.56
79663;BME280;69130;48.724;8.982;2023-05-18T09:14:21;97058.25;;;24.69;28.55
79663;BME280;69130;48.724;8.982;2023-05-18T09:16:51;97051.56;;;25.41;28.63
79663;BME280;69130;48.724;8.982;2023-05-18T09:19:17;97043.38;;;25.49;27.33
79663;BME280;69130;48.724;8.982;2023-05-18T09:21:42;97051.50;;;25.63;27.80
79663;BME280;69130;48.724;8.982;2023-05-18T09:24:07;97059.13;;;25.23;26.95
79663;BME280;69130;48.724;8.982;2023-05-18T09:26:33;97056.31;;;25.76;26.93
79663;BME280;69130;48.724;8.982;2023-05-18T09:28:58;97051.50;;;24.65;28.81
79663;BME280;69130;48.724;8.982;2023-05-18T09:31:24;97055.84;;;24.82;28.74
79663;BME280;69130;48.724;8.982;2023-05-18T09:33:51;97068.00;;;23.44;29.31
79663;BME280;69130;48.724;8.982;2023-05-18T09:36:22;97065.47;;;23.83;29.64
79663;BME280;69130;48.724;8.982;2023-05-18T09:38:50;97057.00;;;24.87;27.74
79663;BME280;69130;48.724;8.982;2023-05-18T09:41:16;97064.88;;;24.19;29.27
79663;BME280;69130;48.724;8.982;2023-05-18T09:43:43;97066.59;;;24.12;28.74
79663;BME280;69130;48.724;8.982;2023-05-18T09:46:11;97066.44;;;24.53;30.82
79663;BME280;69130;48.724;8.982;2023-05-18T09:48:41;97060.91;;;24.46;29.05
79663;BME280;69130;48.724;8.982;2023-05-18T09:51:06;97061.88;;;25.45;27.04
79663;BME280;69130;48.724;8.982;2023-05-18T09:53:35;97060.31;;;25.20;27.83
79663;BME280;69130;48.724;8.982;2023-05-18T09:56:04;97051.56;;;23.94;28.36
79663;BME280;69130;48.724;8.982;2023-05-18T09:58:38;97048.94;;;23.62;28.33
79663;BME280;69130;48.724;8.982;2023-05-18T10:01:03;97054.66;;;23.83;29.88
79663;BME280;69130;48.724;8.982;2023-05-18T10:03:36;97053.56;;;24.93;27.47
79663;BME280;69130;48.724;8.982;2023-05-18T10:06:04;97046.34;;;23.84;27.90
79663;BME280;69130;48.724;8.982;2023-05-18T10:08:29;97044.50;;;22.38;29.83
79663;BME280;69130;48.724;8.982;2023-05-18T10:10:55;97042.50;;;23.71;29.73
79663;BME280;69130;48.724;8.982;2023-05-18T10:13:24;97036.25;;;23.62;27.51
79663;BME280;69130;48.724;8.982;2023-05-18T10:15:53;97033.41;;;24.65;28.08
79663;BME280;69130;48.724;8.982;2023-05-18T10:18:23;97033.63;;;24.56;26.92
79663;BME280;69130;48.724;8.982;2023-05-18T10:20:49;97033.22;;;24.67;29.14
79663;BME280;69130;48.724;8.982;2023-05-18T10:23:17;97027.13;;;24.73;27.71
79663;BME280;69130;48.724;8.982;2023-05-18T10:25:45;97030.91;;;25.40;26.86
79663;BME280;69130;48.724;8.982;2023-05-18T10:28:11;97034.72;;;23.76;28.49
79663;BME280;69130;48.724;8.982;2023-05-18T10:30:39;97025.03;;;24.52;29.94
79663;BME280;69130;48.724;8.982;2023-05-18T10:33:06;97026.34;;;24.56;27.52
79663;BME280;69130;48.724;8.982;2023-05-18T10:35:32;97029.50;;;24.76;27.47
79663;BME280;69130;48.724;8.982;2023-05-18T10:37:58;97027.63;;;24.99;29.29
79663;BME280;69130;48.724;8.982;2023-05-18T10:40:27;97028.72;;;25.35;26.50
79663;BME280;69130;48.724;8.982;2023-05-18T10:42:55;97020.59;;;25.13;27.79
79663;BME280;69130;48.724;8.982;2023-05-18T10:45:21;97025.06;;;25.05;27.06
79663;BME280;69130;48.724;8.982;2023-05-18T10:47:47;97023.63;;;25.18;27.18
79663;BME280;69130;48.724;8.982;2023-05-18T10:50:13;97016.16;;;24.66;28.03
79663;BME280;69130;48.724;8.982;2023-05-18T10:52:40;97008.50;;;24.70;28.24
79663;BME280;69130;48.724;8.982;2023-05-18T10:55:07;97014.03;;;25.07;27.57
79663;BME280;69130;48.724;8.982;2023-05-18T10:57:36;97013.38;;;25.05;27.01
79663;BME280;69130;48.724;8.982;2023-05-18T11:00:05;97018.22;;;24.17;27.35
79663;BME280;69130;48.724;8.982;2023-05-18T11:02:33;97027.03;;;24.89;28.10
79663;BME280;69130;48.724;8.982;2023-05-18T11:05:04;97013.34;;;24.52;27.14
79663;BME280;69130;48.724;8.982;2023-05-18T11:07:29;97001.78;;;24.27;27.41
79663;BME280;69130;48.724;8.982;2023-05-18T11:10:01;97014.78;;;24.70;28.66
79663;BME280;69130;48.724;8.982;2023-05-18T11:12:26;97013.25;;;24.68;27.37
79663;BME280;69130;48.724;8.982;2023-05-18T11:14:53;97002.66;;;25.12;27.87
79663;BME280;69130;48.724;8.982;2023-05-18T11:17:23;97005.66;;;25.17;27.96
79663;BME280;69130;48.724;8.982;2023-05-18T11:27:50;97002.81;;;24.57;29.93
79663;BME280;69130;48.724;8.982;2023-05-18T11:30:28;97002.06;;;24.71;28.72
79663;BME280;69130;48.724;8.982;2023-05-18T11:44:02;96999.16;;;23.40;29.06
79663;BME280;69130;48.724;8.982;2023-05-18T11:46:31;96998.59;;;23.69;27.54
79663;BME280;69130;48.724;8.982;2023-05-18T11:49:01;97005.53;;;22.25;29.00
79663;BME280;69130;48.724;8.982;2023-05-18T11:51:30;96995.41;;;22.85;28.36
79663;BME280;69130;48.724;8.982;2023-05-18T11:53:57;96996.06;;;22.63;29.46
79663;BME280;69130;48.724;8.982;2023-05-18T11:56:29;96991.69;;;23.02;28.64
79663;BME280;69130;48.724;8.982;2023-05-18T11:59:13;96987.44;;;22.67;29.55
79663;BME280;69130;48.724;8.982;2023-05-18T12:01:40;96993.19;;;22.22;29.71
79663;BME280;69130;48.724;8.982;2023-05-18T12:04:07;96986.78;;;22.81;29.59
79663;BME280;69130;48.724;8.982;2023-05-18T12:06:34;96989.72;;;23.36;30.29
79663;BME280;69130;48.724;8.982;2023-05-18T12:09:00;96985.94;;;22.97;30.93
79663;BME280;69130;48.724;8.982;2023-05-18T12:11:26;96972.16;;;22.34;30.60
79663;BME280;69130;48.724;8.982;2023-05-18T12:13:53;96980.50;;;21.22;32.20
79663;BME280;69130;48.724;8.982;2023-05-18T12:16:20;96980.41;;;21.83;31.80
79663;BME280;69130;48.724;8.982;2023-05-18T12:18:49;96975.38;;;22.29;30.75
79663;BME280;69130;48.724;8.982;2023-05-18T12:21:20;96973.63;;;22.62;29.47
79663;BME280;69130;48.724;8.982;2023-05-18T12:23:45;96970.44;;;23.31;29.86
79663;BME280;69130;48.724;8.982;2023-05-18T12:26:11;96976.16;;;22.80;29.38
79663;BME280;69130;48.724;8.982;2023-05-18T12:28:37;96976.34;;;23.10;30.08
79663;BME280;69130;48.724;8.982;2023-05-18T12:31:03;96972.28;;;23.30;31.03
79663;BME280;69130;48.724;8.982;2023-05-18T12:33:32;96981.31;;;22.49;30.34
79663;BME280;69130;48.724;8.982;2023-05-18T12:35:58;96978.69;;;22.89;30.50
79663;BME280;69130;48.724;8.982;2023-05-18T12:38:24;96962.16;;;23.95;29.80
79663;BME280;69130;48.724;8.982;2023-05-18T12:40:50;96958.56;;;24.50;28.19
79663;BME280;69130;48.724;8.982;2023-05-18T12:43:16;96959.28;;;23.50;28.79
79663;BME280;69130;48.724;8.982;2023-05-18T12:45:43;96970.00;;;22.53;29.68
79663;BME280;69130;48.724;8.982;2023-05-18T12:48:10;96964.06;;;21.50;31.03
79663;BME280;69130;48.724;8.982;2023-05-18T12:50:48;96958.50;;;21.52;31.73
79663;BME280;69130;48.724;8.982;2023-05-18T12:53:15;96959.78;;;22.81;31.41
79663;BME280;69130;48.724;8.982;2023-05-18T12:55:41;96969.59;;;24.01;30.58
79663;BME280;69130;48.724;8.982;2023-05-18T12:58:13;96955.69;;;24.20;30.09
79663;BME280;69130;48.724;8.982;2023-05-18T13:00:43;96948.81;;;23.15;30.49
79663;BME280;69130;48.724;8.982;2023-05-18T13:03:10;96968.75;;;23.30;30.45
79663;BME280;69130;48.724;8.982;2023-05-18T13:05:36;96958.78;;;23.47;29.58
79663;BME280;69130;48.724;8.982;2023-05-18T13:08:02;96957.47;;;23.02;31.24
79663;BME280;69130;48.724;8.982;2023-05-18T13:10:31;96947.81;;;23.24;30.86
79663;BME280;69130;48.724;8.982;2023-05-18T13:12:57;96951.69;;;22.57;30.60
79663;BME280;69130;48.724;8.982;2023-05-18T13:15:32;96959.97;;;23.20;30.60
79663;BME280;69130;48.724;8.982;2023-05-18T13:18:08;96963.97;;;23.64;31.04
79663;BME280;69130;48.724;8.982;2023-05-18T13:20:44;96958.63;;;23.16;30.15
79663;BME280;69130;48.724;8.982;2023-05-18T13:23:14;96957.81;;;23.86;29.10
79663;BME280;69130;48.724;8.982;2023-05-18T13:25:40;96961.88;;;23.82;30.29
79663;BME280;69130;48.724;8.982;2023-05-18T13:28:08;96945.91;;;22.52;30.04
79663;BME280;69130;48.724;8.982;2023-05-18T13:30:37;96950.69;;;22.74;32.20
79663;BME280;69130;48.724;8.982;2023-05-18T13:33:04;96956.69;;;21.86;32.22
79663;BME280;69130;48.724;8.982;2023-05-18T13:35:29;96949.31;;;20.94;33.47
79663;BME280;69130;48.724;8.982;2023-05-18T13:37:55;96949.34;;;20.23;34.01
79663;BME280;69130;48.724;8.982;2023-05-18T13:40:21;96948.66;;;19.57;35.44
79663;BME280;69130;48.724;8.982;2023-05-18T13:42:49;96948.91;;;19.37;37.65